Terminal Aerodrome Forecast
Issued by NWS Atlanta, GA

Home | Current Version | Previous Version | Text Only | Print | Product List | Glossary On
Versions: 1 2 3 4 5 6 7 8 9 10 11 12 13 14
777
FTUS42 KFFC 072323
TAFMCN
TAF
KMCN 072323Z 0800/0824 29006KT P6SM SCT250
     FM081000 25003KT P6SM SCT090 BKN250
     FM081400 26008KT P6SM SCT050 BKN080
     FM081800 27010G18KT P6SM SCT035 BKN050 PROB30 0818/0824 6SM
      -SHRA BKN035=

USA.gov is the U.S. government's official web portal to all federal, state and local government web resources and services.